createdAt,value
2018-11-06T00:01:48.165Z,95.57
2018-11-06T00:04:18.438Z,108.77
2018-11-06T00:06:48.649Z,91.87
2018-11-06T00:09:20.521Z,99.63
2018-11-06T00:11:50.745Z,134.00
2018-11-06T00:14:21.156Z,95.77
2018-11-06T00:16:51.314Z,256.37
2018-11-06T00:19:21.514Z,251.83
2018-11-06T00:21:51.692Z,141.47
2018-11-06T00:24:21.828Z,106.43
2018-11-06T00:26:51.998Z,81.57
2018-11-06T00:29:22.135Z,92.50
2018-11-06T00:31:52.300Z,115.37
2018-11-06T00:34:22.503Z,243.70
2018-11-06T00:36:52.629Z,81.60
2018-11-06T00:39:22.775Z,178.87
2018-11-06T00:41:52.882Z,102.40
2018-11-06T00:44:23.042Z,141.70
2018-11-06T00:46:53.233Z,97.67
2018-11-06T00:49:23.368Z,73.17
2018-11-06T00:51:53.560Z,96.50
2018-11-06T00:54:23.668Z,74.80
2018-11-06T00:56:53.841Z,80.77
2018-11-06T00:59:23.974Z,91.27
2018-11-06T01:01:54.147Z,70.40
2018-11-06T01:04:24.324Z,321.83
2018-11-06T01:06:54.438Z,66.13
2018-11-06T01:09:24.778Z,67.80
2018-11-06T01:11:55.054Z,68.47
2018-11-06T01:14:25.164Z,60.43
2018-11-06T01:16:55.334Z,71.93
2018-11-06T01:19:25.505Z,69.30
2018-11-06T01:21:55.655Z,63.20
2018-11-06T01:24:25.784Z,56.33
2018-11-06T01:26:55.992Z,60.00
2018-11-06T01:29:26.196Z,67.90
2018-11-06T01:31:56.315Z,67.33
2018-11-06T01:34:26.475Z,70.40
2018-11-06T01:36:56.595Z,63.50
2018-11-06T01:39:26.774Z,60.93
2018-11-06T01:41:56.930Z,60.20
2018-11-06T01:44:27.097Z,69.33
2018-11-06T01:46:57.281Z,69.97
2018-11-06T01:49:27.457Z,61.23
2018-11-06T01:51:57.596Z,67.70
2018-11-06T01:54:27.772Z,61.63
2018-11-06T01:56:57.922Z,58.67
2018-11-06T01:59:28.082Z,60.07
2018-11-06T02:01:58.233Z,69.33
2018-11-06T02:04:28.370Z,83.43
2018-11-06T02:06:58.474Z,62.20
2018-11-06T02:09:28.652Z,54.00
2018-11-06T02:11:58.800Z,53.43
2018-11-06T02:14:29.046Z,47.43
2018-11-06T02:16:59.189Z,41.77
2018-11-06T02:19:29.349Z,52.13
2018-11-06T02:21:59.495Z,51.70
2018-11-06T02:24:29.706Z,54.90
2018-11-06T02:26:59.943Z,67.83
2018-11-06T02:29:30.206Z,59.23
2018-11-06T02:32:00.416Z,60.10
2018-11-06T02:34:30.638Z,63.33
2018-11-06T02:37:00.813Z,57.83
2018-11-06T02:39:30.976Z,63.37
2018-11-06T02:42:01.169Z,63.40
2018-11-06T02:44:31.350Z,58.73
2018-11-06T02:47:01.671Z,63.17
2018-11-06T02:49:31.821Z,52.37
2018-11-06T02:52:02.156Z,53.30
2018-11-06T02:54:32.305Z,53.07
2018-11-06T02:57:02.519Z,58.57
2018-11-06T02:59:32.777Z,54.60
2018-11-06T03:02:02.907Z,64.07
2018-11-06T03:04:33.079Z,54.10
2018-11-06T03:07:03.228Z,50.43
2018-11-06T03:09:33.444Z,51.03
2018-11-06T03:12:03.630Z,59.53
2018-11-06T03:14:33.809Z,56.20
2018-11-06T03:17:04.001Z,52.00
2018-11-06T03:19:34.265Z,56.77
2018-11-06T03:22:04.434Z,52.47
2018-11-06T03:24:34.590Z,54.80
2018-11-06T03:27:04.853Z,48.77
2018-11-06T03:29:35.005Z,46.47
2018-11-06T03:32:05.432Z,41.70
2018-11-06T03:34:35.562Z,45.87
2018-11-06T03:37:05.968Z,38.50
2018-11-06T03:39:36.170Z,37.07
2018-11-06T03:42:06.680Z,40.73
2018-11-06T03:44:36.906Z,40.30
2018-11-06T03:47:07.148Z,37.23
2018-11-06T03:49:37.299Z,36.67
2018-11-06T03:52:07.723Z,39.90
2018-11-06T03:54:37.863Z,42.40
2018-11-06T03:57:08.019Z,36.67
2018-11-06T03:59:38.135Z,40.33
2018-11-06T04:02:08.289Z,42.97
2018-11-06T04:04:38.467Z,44.40
2018-11-06T04:07:08.722Z,47.27
2018-11-06T04:09:38.802Z,50.10
2018-11-06T04:12:09.026Z,58.13
2018-11-06T04:14:39.217Z,62.27
2018-11-06T04:17:09.383Z,59.30
2018-11-06T04:19:39.576Z,57.77
2018-11-06T04:22:09.740Z,58.10
2018-11-06T04:24:39.931Z,63.40
2018-11-06T04:27:10.200Z,74.33
2018-11-06T04:29:40.427Z,57.60
2018-11-06T04:32:10.574Z,85.20
2018-11-06T04:34:40.776Z,82.97
2018-11-06T04:37:10.993Z,68.63
2018-11-06T04:39:41.227Z,63.27
2018-11-06T04:42:11.482Z,73.70
2018-11-06T04:44:41.680Z,70.23
2018-11-06T04:47:11.983Z,64.83
2018-11-06T04:49:42.119Z,61.20
2018-11-06T04:52:12.347Z,56.93
2018-11-06T04:54:42.562Z,64.23
2018-11-06T04:57:12.835Z,52.13
2018-11-06T04:59:43.076Z,48.07
2018-11-06T05:02:13.553Z,54.13
2018-11-06T05:04:43.743Z,51.37
2018-11-06T05:07:13.953Z,52.33
2018-11-06T05:09:44.161Z,48.83
2018-11-06T05:12:14.343Z,48.07
2018-11-06T05:14:44.681Z,54.37
2018-11-06T05:17:14.884Z,52.73
2018-11-06T05:19:45.055Z,49.63
2018-11-06T05:22:15.306Z,54.67
2018-11-06T05:24:45.479Z,52.60
2018-11-06T05:27:15.673Z,52.30
2018-11-06T05:29:45.866Z,58.30
2018-11-06T05:32:16.441Z,59.50
2018-11-06T05:34:46.696Z,53.57
2018-11-06T05:37:16.899Z,54.57
2018-11-06T05:39:57.619Z,53.50
2018-11-06T05:42:27.852Z,57.10
2018-11-06T05:44:58.062Z,61.53
2018-11-06T05:47:28.313Z,73.57
2018-11-06T05:49:58.513Z,71.47
2018-11-06T05:52:28.760Z,63.50
2018-11-06T05:54:59.112Z,62.80
2018-11-06T05:57:29.333Z,57.43
2018-11-06T05:59:59.529Z,60.97
2018-11-06T06:02:29.730Z,58.70
2018-11-06T06:04:59.882Z,62.20
2018-11-06T06:07:30.031Z,65.00
2018-11-06T06:10:00.237Z,52.27
2018-11-06T06:12:30.513Z,61.53
2018-11-06T06:15:00.758Z,53.17
2018-11-06T06:17:30.971Z,56.90
2018-11-06T06:20:01.189Z,69.27
2018-11-06T06:22:31.463Z,73.00
2018-11-06T06:25:01.623Z,60.80
2018-11-06T06:27:31.934Z,67.73
2018-11-06T06:30:02.151Z,61.70
2018-11-06T06:32:32.398Z,65.17
2018-11-06T06:35:02.740Z,63.47
2018-11-06T06:37:33.009Z,68.27
2018-11-06T06:40:03.332Z,77.40
2018-11-06T06:42:33.482Z,74.03
2018-11-06T06:45:03.736Z,75.30
2018-11-06T06:47:33.959Z,66.03
2018-11-06T06:50:04.274Z,68.07
2018-11-06T06:52:34.442Z,63.87
2018-11-06T06:55:04.817Z,64.27
2018-11-06T06:57:35.041Z,71.13
2018-11-06T07:00:05.567Z,63.10
2018-11-06T07:02:35.859Z,71.30
2018-11-06T07:05:07.365Z,77.10
2018-11-06T07:07:38.352Z,89.27
2018-11-06T07:10:10.695Z,84.90
2018-11-06T07:12:41.674Z,80.10
2018-11-06T07:15:13.356Z,69.70
2018-11-06T07:17:44.281Z,74.07
2018-11-06T07:20:19.854Z,80.33
2018-11-06T07:22:50.162Z,73.43
2018-11-06T07:25:20.579Z,95.10
2018-11-06T07:27:50.778Z,85.77
2018-11-06T07:30:23.927Z,84.10
2018-11-06T07:32:55.541Z,77.63
2018-11-06T07:35:39.573Z,77.03
2018-11-06T07:38:09.997Z,77.00
2018-11-06T07:40:40.441Z,96.60
2018-11-06T07:43:10.823Z,72.23
2018-11-06T07:45:42.842Z,77.30
2018-11-06T07:48:13.170Z,69.87
2018-11-06T07:50:43.692Z,68.03
2018-11-06T07:53:14.247Z,72.37
2018-11-06T07:55:45.349Z,73.80
2018-11-06T07:58:15.588Z,97.70
2018-11-06T08:00:46.066Z,76.83
2018-11-06T08:03:16.470Z,83.33
2018-11-06T08:05:47.789Z,87.37
2018-11-06T08:08:18.055Z,76.20
2018-11-06T08:10:48.279Z,84.70
2018-11-06T08:13:22.547Z,78.43
2018-11-06T08:15:54.183Z,80.33
2018-11-06T08:18:24.403Z,90.00
2018-11-06T08:20:54.682Z,78.57
2018-11-06T08:23:25.022Z,85.50
2018-11-06T08:25:55.251Z,64.87
2018-11-06T08:28:25.590Z,75.57
2018-11-06T08:30:57.180Z,74.83
2018-11-06T08:33:29.395Z,74.37
2018-11-06T08:35:59.628Z,64.97
2018-11-06T08:38:29.851Z,75.50
2018-11-06T08:41:00.057Z,61.27
2018-11-06T08:43:30.361Z,64.03
2018-11-06T08:46:00.777Z,60.07
2018-11-06T08:48:30.963Z,62.03
2018-11-06T08:51:01.251Z,69.60
2018-11-06T08:53:31.476Z,53.20
2018-11-06T08:56:01.812Z,57.93
2018-11-06T08:58:31.991Z,53.97
2018-11-06T09:01:02.224Z,53.93
2018-11-06T09:03:32.463Z,61.77
2018-11-06T09:06:02.763Z,68.43
2018-11-06T09:08:33.082Z,52.77
2018-11-06T09:11:03.287Z,67.93
2018-11-06T09:13:33.513Z,66.57
2018-11-06T09:16:03.711Z,68.13
2018-11-06T09:18:33.984Z,56.87
2018-11-06T09:21:04.301Z,63.37
2018-11-06T09:23:34.631Z,59.47
2018-11-06T09:26:04.864Z,63.07
2018-11-06T09:28:35.138Z,58.50
2018-11-06T09:31:05.801Z,70.47
2018-11-06T09:33:36.249Z,64.20
2018-11-06T09:36:06.520Z,77.57
2018-11-06T09:38:36.758Z,74.47
2018-11-06T09:41:07.649Z,70.00
2018-11-06T09:43:41.754Z,57.87
2018-11-06T09:46:12.061Z,64.03
2018-11-06T09:48:42.352Z,68.00
2018-11-06T09:51:12.640Z,62.77
2018-11-06T09:53:42.975Z,60.03
2018-11-06T09:56:13.289Z,56.57
2018-11-06T09:58:43.744Z,58.27
2018-11-06T10:01:14.193Z,53.30
2018-11-06T10:03:44.402Z,52.33
2018-11-06T10:06:16.275Z,57.33
2018-11-06T10:08:46.779Z,63.37
2018-11-06T10:11:17.132Z,52.73
2018-11-06T10:13:47.381Z,59.03
2018-11-06T10:16:17.696Z,58.53
2018-11-06T10:18:47.990Z,53.70
2018-11-06T10:21:18.369Z,52.63
2018-11-06T10:23:48.737Z,52.97
2018-11-06T10:26:19.021Z,53.77
2018-11-06T10:28:49.327Z,52.83
2018-11-06T10:31:19.691Z,53.53
2018-11-06T10:33:50.004Z,49.97
2018-11-06T10:36:20.296Z,53.63
2018-11-06T10:38:50.649Z,49.97
2018-11-06T10:41:20.963Z,59.93
2018-11-06T10:43:51.354Z,53.33
2018-11-06T10:46:21.572Z,49.47
2018-11-06T10:48:52.113Z,46.23
2018-11-06T10:51:22.447Z,46.83
2018-11-06T10:53:52.697Z,46.53
2018-11-06T10:56:23.024Z,43.20
2018-11-06T10:58:53.337Z,38.63
2018-11-06T11:03:29.874Z,39.27
2018-11-06T11:06:00.265Z,40.17
2018-11-06T11:08:30.676Z,39.53
2018-11-06T11:11:00.933Z,32.77
2018-11-06T11:13:40.784Z,30.73
2018-11-06T11:16:14.490Z,32.00
2018-11-06T11:18:44.765Z,30.63
2018-11-06T11:21:15.053Z,27.77
2018-11-06T11:23:45.404Z,26.83
2018-11-06T11:26:15.735Z,30.00
2018-11-06T11:28:46.140Z,26.93
2018-11-06T11:31:25.417Z,24.50
2018-11-06T11:33:56.075Z,23.93
2018-11-06T11:36:26.429Z,25.47
2018-11-06T11:38:56.776Z,26.23
2018-11-06T11:41:27.119Z,26.57
2018-11-06T11:43:57.387Z,22.73
2018-11-06T11:46:27.875Z,23.50
2018-11-06T11:48:58.310Z,23.80
2018-11-06T11:51:28.887Z,20.20
2018-11-06T11:53:59.885Z,23.37
2018-11-06T11:56:31.813Z,21.03
2018-11-06T11:59:02.380Z,22.47
2018-11-06T12:01:41.113Z,19.63
2018-11-06T12:04:20.921Z,20.03
2018-11-06T12:07:01.409Z,19.47
2018-11-06T12:09:32.100Z,21.67
2018-11-06T12:12:17.139Z,22.60
2018-11-06T12:14:58.926Z,21.67
2018-11-06T12:17:29.599Z,21.87
2018-11-06T12:20:08.782Z,20.60
2018-11-06T12:22:50.829Z,18.43
2018-11-06T12:25:30.796Z,19.57
2018-11-06T12:28:12.024Z,17.87
2018-11-06T12:30:51.417Z,23.20
2018-11-06T12:33:30.498Z,21.80
2018-11-06T12:36:12.663Z,19.63
2018-11-06T12:38:54.264Z,22.23
2018-11-06T12:41:35.548Z,18.63
2018-11-06T12:44:18.208Z,18.93
2018-11-06T12:46:56.728Z,19.93
2018-11-06T12:49:36.544Z,28.97
2018-11-06T12:52:16.294Z,21.27
2018-11-06T12:54:58.294Z,22.73
2018-11-06T12:57:36.788Z,20.67
2018-11-06T13:00:20.378Z,22.90
2018-11-06T13:02:50.980Z,22.70
2018-11-06T13:05:21.256Z,24.23
2018-11-06T13:07:51.502Z,22.70
2018-11-06T13:10:21.822Z,21.23
2018-11-06T13:12:52.131Z,23.00
2018-11-06T13:15:22.425Z,18.63
2018-11-06T13:17:52.721Z,24.47
2018-11-06T13:20:22.946Z,20.20
2018-11-06T13:22:53.224Z,21.20
2018-11-06T13:25:23.571Z,20.33
2018-11-06T13:27:53.996Z,22.37
2018-11-06T13:30:24.267Z,19.90
2018-11-06T13:32:54.597Z,22.10
2018-11-06T13:35:24.930Z,21.53
2018-11-06T13:37:55.194Z,18.93
2018-11-06T13:40:25.528Z,23.03
2018-11-06T13:42:56.095Z,20.07
2018-11-06T13:45:27.085Z,20.93
2018-11-06T13:48:06.391Z,20.77
2018-11-06T13:50:47.365Z,17.60
2018-11-06T13:53:29.479Z,18.70
2018-11-06T13:55:59.923Z,20.33
2018-11-06T13:58:39.249Z,18.37
2018-11-06T14:01:09.736Z,16.67
2018-11-06T14:03:39.989Z,19.03
2018-11-06T14:06:10.376Z,17.10
2018-11-06T14:08:40.720Z,22.47
2018-11-06T14:11:11.106Z,22.17
2018-11-06T14:13:51.380Z,19.33
2018-11-06T14:16:38.218Z,21.07
2018-11-06T14:19:21.755Z,20.33
2018-11-06T14:22:04.680Z,23.83
2018-11-06T14:24:51.316Z,23.80
2018-11-06T14:28:02.331Z,17.47
2018-11-06T14:30:56.672Z,18.17
2018-11-06T14:33:42.664Z,20.37
2018-11-06T14:36:27.266Z,20.70
2018-11-06T14:38:57.584Z,20.57
2018-11-06T14:41:28.107Z,22.03
2018-11-06T14:43:58.371Z,21.90
2018-11-06T14:46:29.785Z,22.90
2018-11-06T14:54:44.765Z,24.07
2018-11-06T14:57:14.389Z,24.13
2018-11-06T14:59:44.119Z,23.37
2018-11-06T15:02:13.685Z,22.57
2018-11-06T15:04:43.226Z,23.00
2018-11-06T15:07:12.782Z,21.07
2018-11-06T15:09:42.329Z,24.90
2018-11-06T15:12:11.879Z,25.03
2018-11-06T15:14:41.532Z,20.93
2018-11-06T15:17:11.107Z,20.60
2018-11-06T15:19:40.632Z,21.70
2018-11-06T15:22:10.290Z,27.90
2018-11-06T15:24:40.615Z,25.10
2018-11-06T15:27:10.169Z,29.73
2018-11-06T15:29:39.734Z,29.93
2018-11-06T15:32:11.655Z,30.50
2018-11-06T15:34:41.369Z,27.30
2018-11-06T15:37:13.007Z,32.17
2018-11-06T15:39:42.579Z,28.87
2018-11-06T15:42:12.267Z,32.03
2018-11-06T15:44:41.760Z,33.53
2018-11-06T15:47:11.364Z,34.43
2018-11-06T15:49:40.943Z,32.47
2018-11-06T15:52:10.518Z,31.53
2018-11-06T15:54:40.148Z,41.30
2018-11-06T15:57:09.759Z,37.67
2018-11-06T15:59:39.559Z,38.60
2018-11-06T16:02:09.053Z,33.10
2018-11-06T16:04:38.612Z,37.00
2018-11-06T16:07:08.305Z,39.57
2018-11-06T16:09:37.830Z,33.07
2018-11-06T16:12:07.386Z,33.43
2018-11-06T16:14:36.993Z,35.23
2018-11-06T16:17:06.888Z,40.40
2018-11-06T16:19:36.440Z,37.03
2018-11-06T16:22:06.094Z,38.83
2018-11-06T16:24:35.576Z,43.63
2018-11-06T16:27:05.130Z,40.93
2018-11-06T16:29:34.808Z,47.33
2018-11-06T16:32:04.398Z,37.30
2018-11-06T16:34:34.005Z,44.07
2018-11-06T16:37:03.560Z,45.80
2018-11-06T16:39:33.151Z,39.80
2018-11-06T16:42:02.681Z,45.30
2018-11-06T16:44:32.255Z,48.63
2018-11-06T16:47:01.712Z,50.43
2018-11-06T16:49:31.221Z,43.67
2018-11-06T16:52:00.772Z,47.03
2018-11-06T16:54:30.383Z,49.63
2018-11-06T16:56:59.909Z,49.17
2018-11-06T16:59:29.514Z,54.87
2018-11-06T17:01:59.068Z,45.13
2018-11-06T17:04:28.655Z,49.53
2018-11-06T17:06:58.247Z,58.77
2018-11-06T17:09:27.842Z,45.47
2018-11-06T17:11:57.400Z,48.33
2018-11-06T17:14:26.976Z,51.97
2018-11-06T17:16:56.466Z,48.40
2018-11-06T17:19:26.092Z,54.20
2018-11-06T17:21:55.680Z,52.57
2018-11-06T17:24:25.209Z,45.10
2018-11-06T17:26:54.763Z,48.23
2018-11-06T17:29:24.250Z,48.17
2018-11-06T17:31:53.783Z,53.83
2018-11-06T17:34:23.310Z,46.47
2018-11-06T17:36:52.895Z,49.90
2018-11-06T17:39:22.495Z,49.10
2018-11-06T17:41:52.026Z,51.87
2018-11-06T17:44:21.596Z,49.77
2018-11-06T17:46:51.152Z,48.33
2018-11-06T17:49:20.776Z,51.17
2018-11-06T17:51:50.353Z,54.67
2018-11-06T17:54:19.916Z,49.60
2018-11-06T17:56:49.497Z,54.03
2018-11-06T17:59:19.080Z,55.07
2018-11-06T18:01:48.660Z,52.60
2018-11-06T18:04:18.298Z,47.77
2018-11-06T18:06:47.784Z,50.17
2018-11-06T18:09:17.384Z,53.07
2018-11-06T18:11:46.931Z,51.93
2018-11-06T18:14:16.545Z,52.40
2018-11-06T18:16:46.062Z,58.57
2018-11-06T18:19:15.661Z,48.83
2018-11-06T18:21:45.225Z,44.30
2018-11-06T18:24:14.798Z,52.23
2018-11-06T18:26:44.362Z,53.30
2018-11-06T18:29:13.922Z,54.70
2018-11-06T18:31:43.469Z,51.20
2018-11-06T18:34:13.009Z,56.37
2018-11-06T18:36:42.514Z,64.40
2018-11-06T18:39:13.944Z,58.33
2018-11-06T18:41:43.786Z,64.10
2018-11-06T18:44:13.470Z,64.60
2018-11-06T18:46:42.996Z,58.33
2018-11-06T18:49:12.537Z,80.10
2018-11-06T18:51:42.089Z,59.73
2018-11-06T18:54:11.607Z,62.80
2018-11-06T18:56:41.174Z,61.73
2018-11-06T18:59:10.720Z,61.40
2018-11-06T19:01:40.282Z,67.10
2018-11-06T19:04:09.821Z,61.83
2018-11-06T19:06:39.390Z,65.83
2018-11-06T19:09:10.508Z,58.80
2018-11-06T19:11:40.508Z,67.40
2018-11-06T19:14:10.658Z,77.40
2018-11-06T19:16:40.362Z,76.90
2018-11-06T19:19:09.923Z,79.00
2018-11-06T19:21:39.500Z,63.07
2018-11-06T19:24:09.215Z,64.10
2018-11-06T19:26:38.707Z,64.17
2018-11-06T19:29:08.299Z,58.83
2018-11-06T19:31:37.968Z,69.17
2018-11-06T19:34:07.591Z,68.30
2018-11-06T19:36:37.248Z,67.13
2018-11-06T19:39:09.722Z,62.57
2018-11-06T19:41:39.320Z,58.97
2018-11-06T19:44:09.553Z,68.00
2018-11-06T19:46:39.175Z,85.47
2018-11-06T19:49:08.737Z,72.43
2018-11-06T19:51:38.335Z,80.63
2018-11-06T19:54:07.927Z,80.47
2018-11-06T19:56:37.540Z,75.07
2018-11-06T19:59:07.122Z,90.13
2018-11-06T20:01:36.774Z,77.57
2018-11-06T20:04:06.801Z,75.27
2018-11-06T20:06:36.549Z,83.73
2018-11-06T20:09:08.278Z,79.70
2018-11-06T20:11:38.388Z,96.33
2018-11-06T20:14:08.219Z,97.50
2018-11-06T20:16:37.839Z,95.33
2018-11-06T20:19:07.381Z,101.33
2018-11-06T20:21:37.114Z,85.87
2018-11-06T20:24:07.651Z,94.67
2018-11-06T20:26:37.278Z,78.53
2018-11-06T20:29:07.058Z,87.87
2018-11-06T20:31:36.863Z,83.10
2018-11-06T20:34:06.698Z,89.07
2018-11-06T20:36:36.265Z,93.97
2018-11-06T20:39:08.264Z,88.50
2018-11-06T20:41:37.919Z,85.87
2018-11-06T20:44:07.532Z,75.37
2018-11-06T20:46:37.124Z,77.20
2018-11-06T20:49:06.859Z,80.90
2018-11-06T20:51:36.365Z,88.43
2018-11-06T20:54:06.159Z,76.70
2018-11-06T20:56:36.049Z,99.00
2018-11-06T20:59:06.174Z,105.53
2018-11-06T21:01:35.721Z,86.87
2018-11-06T21:04:05.364Z,90.30
2018-11-06T21:06:34.940Z,73.87
2018-11-06T21:09:06.153Z,89.37
2018-11-06T21:11:35.758Z,97.90
2018-11-06T21:14:05.541Z,80.77
2018-11-06T21:16:35.131Z,92.13
2018-11-06T21:19:05.048Z,87.07
2018-11-06T21:21:34.578Z,91.13
2018-11-06T21:24:04.194Z,91.53
2018-11-06T21:26:33.828Z,100.17
2018-11-06T21:29:03.316Z,88.07
2018-11-06T21:31:32.846Z,94.03
2018-11-06T21:34:02.486Z,87.20
2018-11-06T21:36:32.055Z,99.83
2018-11-06T21:39:01.626Z,91.43
2018-11-06T21:41:31.156Z,102.00
2018-11-06T21:44:00.769Z,110.07
2018-11-06T21:46:30.333Z,68.50
2018-11-06T21:49:00.153Z,78.90
2018-11-06T21:51:29.805Z,100.13
2018-11-06T21:53:59.315Z,114.77
2018-11-06T21:56:28.875Z,130.97
2018-11-06T21:58:58.429Z,100.30
2018-11-06T22:01:27.990Z,93.30
2018-11-06T22:03:57.514Z,92.03
2018-11-06T22:06:27.065Z,92.93
2018-11-06T22:08:56.679Z,82.60
2018-11-06T22:11:26.217Z,84.40
2018-11-06T22:13:55.910Z,76.83
2018-11-06T22:16:25.433Z,83.70
2018-11-06T22:18:55.081Z,94.27
2018-11-06T22:21:24.644Z,79.27
2018-11-06T22:23:54.210Z,101.97
2018-11-06T22:26:23.799Z,84.07
2018-11-06T22:28:53.377Z,81.63
2018-11-06T22:31:23.017Z,78.93
2018-11-06T22:33:52.572Z,89.73
2018-11-06T22:36:22.246Z,80.03
2018-11-06T22:38:51.725Z,85.87
2018-11-06T22:41:21.461Z,84.30
2018-11-06T22:43:51.006Z,84.53
2018-11-06T22:46:20.661Z,92.67
2018-11-06T22:48:50.216Z,77.30
2018-11-06T22:51:19.791Z,78.63
2018-11-06T22:53:49.299Z,72.17
2018-11-06T22:56:18.894Z,69.43
2018-11-06T22:58:48.452Z,73.57
2018-11-06T23:01:23.477Z,76.17
2018-11-06T23:03:53.744Z,71.77
2018-11-06T23:06:23.603Z,84.03
2018-11-06T23:08:53.009Z,83.07
2018-11-06T23:11:22.508Z,72.17
2018-11-06T23:13:52.104Z,67.47
2018-11-06T23:16:21.719Z,52.00
2018-11-06T23:18:51.316Z,50.10
2018-11-06T23:21:20.896Z,44.97
2018-11-06T23:23:50.437Z,51.10
2018-11-06T23:26:20.012Z,52.73
2018-11-06T23:28:49.565Z,53.40
2018-11-06T23:31:19.241Z,54.43
2018-11-06T23:33:48.798Z,48.03
2018-11-06T23:36:18.316Z,46.40
2018-11-06T23:38:47.981Z,47.50
2018-11-06T23:41:17.511Z,44.63
2018-11-06T23:43:47.113Z,47.03
2018-11-06T23:46:16.664Z,54.47
2018-11-06T23:48:46.264Z,51.43
2018-11-06T23:51:15.808Z,45.97
2018-11-06T23:53:45.346Z,54.03
2018-11-06T23:56:14.940Z,56.00
2018-11-06T23:58:44.473Z,58.77
